createdAt,value
2022-12-15T00:02:05.710Z,14.88
2022-12-15T00:04:50.840Z,13.25
2022-12-15T00:07:35.776Z,13.18
2022-12-15T00:10:20.607Z,13.73
2022-12-15T00:13:05.483Z,12.18
2022-12-15T00:15:50.253Z,12.80
2022-12-15T00:18:35.177Z,12.23
2022-12-15T00:21:19.959Z,14.13
2022-12-15T00:24:04.985Z,12.48
2022-12-15T00:26:50.258Z,13.55
2022-12-15T00:29:35.116Z,15.73
2022-12-15T00:32:20.031Z,13.23
2022-12-15T00:35:04.869Z,15.07
2022-12-15T00:37:49.885Z,12.38
2022-12-15T00:40:17.482Z,13.15
2022-12-15T00:42:45.020Z,13.88
2022-12-15T00:45:17.265Z,13.00
2022-12-15T00:47:43.774Z,14.15
2022-12-15T00:50:30.769Z,14.32
2022-12-15T00:53:16.051Z,14.95
2022-12-15T00:56:01.062Z,15.10
2022-12-15T00:58:46.472Z,12.82
2022-12-15T01:01:31.585Z,13.48
2022-12-15T01:04:16.538Z,13.40
2022-12-15T01:07:01.693Z,14.65
2022-12-15T01:09:46.792Z,13.32
2022-12-15T01:12:31.757Z,13.32
2022-12-15T01:15:16.632Z,14.40
2022-12-15T01:18:01.583Z,13.38
2022-12-15T01:20:32.668Z,14.55
2022-12-15T01:23:00.252Z,14.90
2022-12-15T01:25:29.053Z,14.23
2022-12-15T01:27:56.675Z,13.43
2022-12-15T01:30:26.795Z,14.52
2022-12-15T01:32:54.647Z,12.98
2022-12-15T01:35:22.447Z,14.75
2022-12-15T01:37:50.370Z,14.38
2022-12-15T01:40:37.662Z,14.93
2022-12-15T01:43:10.610Z,14.13
2022-12-15T01:45:58.857Z,15.45
2022-12-15T01:48:35.238Z,13.50
2022-12-15T01:51:11.441Z,14.88
2022-12-15T01:53:44.454Z,14.65
2022-12-15T01:56:12.948Z,15.63
2022-12-15T01:58:44.522Z,14.80
2022-12-15T02:01:12.407Z,15.30
2022-12-15T02:03:40.776Z,13.50
2022-12-15T02:06:09.677Z,13.25
2022-12-15T02:08:38.501Z,14.07
2022-12-15T02:11:05.986Z,13.18
2022-12-15T02:13:57.055Z,14.43
2022-12-15T02:16:35.003Z,15.93
2022-12-15T02:19:30.884Z,14.70
2022-12-15T02:22:51.955Z,15.50
2022-12-15T02:25:23.737Z,14.82
2022-12-15T02:28:08.501Z,14.23
2022-12-15T02:30:41.890Z,14.43
2022-12-15T02:33:21.773Z,12.88
2022-12-15T02:36:01.660Z,13.38
2022-12-15T02:38:37.537Z,17.02
2022-12-15T02:41:07.547Z,15.77
2022-12-15T02:43:39.909Z,14.20
2022-12-15T02:49:01.556Z,15.27
2022-12-15T02:52:12.185Z,13.05
2022-12-15T02:54:47.165Z,14.38
2022-12-15T02:57:25.900Z,15.70
2022-12-15T03:00:00.175Z,15.88
2022-12-15T03:02:31.769Z,16.00
2022-12-15T03:05:00.129Z,15.77
2022-12-15T03:07:28.849Z,16.38
2022-12-15T03:09:58.291Z,16.65
2022-12-15T03:12:25.813Z,14.90
2022-12-15T03:14:53.319Z,16.00
2022-12-15T03:17:21.258Z,15.00
2022-12-15T03:19:49.732Z,13.13
2022-12-15T03:22:17.546Z,16.45
2022-12-15T03:24:45.089Z,14.43
2022-12-15T03:27:13.093Z,14.38
2022-12-15T03:29:40.770Z,14.35
2022-12-15T03:32:08.565Z,13.45
2022-12-15T03:34:36.228Z,15.38
2022-12-15T03:37:03.812Z,16.02
2022-12-15T03:39:31.419Z,15.18
2022-12-15T03:41:59.065Z,12.57
2022-12-15T03:44:26.731Z,14.32
2022-12-15T03:46:57.232Z,13.95
2022-12-15T03:49:28.981Z,15.73
2022-12-15T03:51:56.651Z,14.48
2022-12-15T03:54:24.134Z,14.48
2022-12-15T03:56:51.663Z,16.80
2022-12-15T03:59:20.038Z,15.63
2022-12-15T04:01:49.201Z,15.68
2022-12-15T04:04:16.991Z,17.27
2022-12-15T04:06:44.510Z,14.30
2022-12-15T04:09:12.092Z,13.80
2022-12-15T04:11:39.573Z,15.52
2022-12-15T04:14:07.102Z,15.02
2022-12-15T04:16:34.711Z,18.42
2022-12-15T04:19:19.599Z,13.60
2022-12-15T04:21:47.119Z,15.88
2022-12-15T04:24:32.103Z,13.52
2022-12-15T04:27:16.758Z,14.25
2022-12-15T04:30:01.492Z,11.38
2022-12-15T04:32:49.996Z,13.52
2022-12-15T04:35:35.810Z,12.90
2022-12-15T04:38:21.033Z,12.82
2022-12-15T04:41:06.452Z,13.05
2022-12-15T04:43:51.256Z,12.90
2022-12-15T04:46:36.184Z,13.68
2022-12-15T04:49:21.348Z,11.40
2022-12-15T04:52:06.083Z,15.35
2022-12-15T04:54:50.872Z,12.05
2022-12-15T04:57:35.785Z,13.60
2022-12-15T05:00:20.841Z,13.05
2022-12-15T05:03:05.605Z,11.73
2022-12-15T05:05:50.483Z,13.00
2022-12-15T05:08:35.969Z,15.05
2022-12-15T05:11:20.738Z,14.55
2022-12-15T05:14:05.652Z,14.10
2022-12-15T05:16:50.478Z,13.00
2022-12-15T05:19:35.542Z,13.30
2022-12-15T05:22:20.317Z,14.77
2022-12-15T05:25:05.142Z,16.05
2022-12-15T05:27:49.832Z,13.57
2022-12-15T05:30:35.431Z,15.35
2022-12-15T05:33:06.989Z,12.68
2022-12-15T05:35:34.548Z,14.53
2022-12-15T05:38:02.184Z,14.18
2022-12-15T05:40:29.686Z,13.35
2022-12-15T05:43:00.041Z,13.52
2022-12-15T05:45:28.874Z,14.05
2022-12-15T05:47:56.910Z,14.60
2022-12-15T05:50:24.737Z,13.25
2022-12-15T05:52:52.286Z,14.55
2022-12-15T05:55:20.580Z,16.50
2022-12-15T05:57:55.313Z,15.57
2022-12-15T06:00:22.962Z,16.63
2022-12-15T06:02:50.606Z,14.25
2022-12-15T06:05:18.779Z,13.80
2022-12-15T06:07:46.450Z,16.63
2022-12-15T06:10:13.990Z,13.90
2022-12-15T06:12:41.618Z,14.38
2022-12-15T06:15:09.645Z,14.18
2022-12-15T06:17:37.273Z,13.20
2022-12-15T06:20:05.227Z,14.82
2022-12-15T06:22:32.768Z,14.70
2022-12-15T06:25:00.375Z,14.68
2022-12-15T06:27:28.003Z,16.98
2022-12-15T06:29:55.571Z,14.48
2022-12-15T06:32:23.200Z,15.30
2022-12-15T06:34:50.655Z,14.80
2022-12-15T06:37:18.184Z,14.73
2022-12-15T06:39:46.037Z,13.93
2022-12-15T06:42:14.611Z,15.40
2022-12-15T06:44:42.081Z,14.68
2022-12-15T06:47:09.642Z,14.85
2022-12-15T06:49:37.275Z,16.55
2022-12-15T06:52:04.853Z,15.27
2022-12-15T06:54:32.404Z,17.95
2022-12-15T06:56:59.904Z,16.27
2022-12-15T06:59:27.584Z,17.38
2022-12-15T07:01:55.294Z,17.45
2022-12-15T07:04:23.010Z,14.48
2022-12-15T07:06:50.615Z,15.82
2022-12-15T07:09:18.388Z,17.65
2022-12-15T07:11:49.314Z,18.67
2022-12-15T07:14:16.897Z,14.98
2022-12-15T07:16:45.607Z,17.23
2022-12-15T07:19:13.857Z,15.65
2022-12-15T07:21:42.408Z,16.52
2022-12-15T07:24:12.928Z,18.40
2022-12-15T07:26:41.807Z,19.50
2022-12-15T07:29:09.350Z,16.90
2022-12-15T07:31:36.953Z,17.33
2022-12-15T07:34:04.650Z,21.23
2022-12-15T07:36:32.401Z,18.88
2022-12-15T07:39:01.894Z,16.98
2022-12-15T07:41:30.205Z,17.50
2022-12-15T07:43:59.056Z,16.63
2022-12-15T07:46:27.392Z,16.45
2022-12-15T07:48:54.978Z,15.65
2022-12-15T07:51:23.267Z,16.90
2022-12-15T07:53:51.806Z,16.42
2022-12-15T07:56:21.463Z,14.05
2022-12-15T07:58:49.502Z,15.73
2022-12-15T08:01:17.918Z,15.75
2022-12-15T08:03:46.151Z,16.95
2022-12-15T08:06:15.841Z,16.95
2022-12-15T08:08:49.973Z,16.48
2022-12-15T08:11:18.556Z,17.95
2022-12-15T08:14:03.668Z,16.90
2022-12-15T08:16:34.666Z,16.92
2022-12-15T08:19:02.868Z,17.70
2022-12-15T08:21:31.328Z,15.77
2022-12-15T08:24:00.760Z,17.35
2022-12-15T08:26:31.286Z,19.05
2022-12-15T08:29:48.818Z,15.80
2022-12-15T08:31:53.052Z,18.83
2022-12-15T08:34:21.566Z,20.98
2022-12-15T08:36:49.142Z,19.95
2022-12-15T08:39:16.964Z,17.90
2022-12-15T08:41:44.544Z,18.77
2022-12-15T08:44:12.081Z,19.65
2022-12-15T08:46:39.883Z,16.92
2022-12-15T08:49:08.677Z,20.40
2022-12-15T08:51:36.306Z,18.88
2022-12-15T08:54:03.981Z,18.23
2022-12-15T08:56:31.640Z,19.05
2022-12-15T08:59:02.083Z,18.35
2022-12-15T09:01:32.269Z,18.02
2022-12-15T09:04:01.414Z,19.08
2022-12-15T09:06:34.410Z,17.42
2022-12-15T09:09:04.977Z,20.50
2022-12-15T09:11:33.412Z,18.40
2022-12-15T09:14:01.404Z,21.60
2022-12-15T09:16:29.182Z,19.33
2022-12-15T09:18:59.157Z,21.33
2022-12-15T09:21:29.171Z,18.73
2022-12-15T09:24:01.990Z,19.80
2022-12-15T09:26:32.137Z,19.10
2022-12-15T09:29:00.181Z,19.05
2022-12-15T09:31:30.676Z,17.83
2022-12-15T09:34:00.809Z,17.63
2022-12-15T09:36:30.320Z,18.27
2022-12-15T09:38:57.937Z,17.77
2022-12-15T09:41:31.435Z,18.02
2022-12-15T09:44:04.098Z,19.48
2022-12-15T09:47:16.254Z,17.63
2022-12-15T09:49:59.148Z,17.13
2022-12-15T09:52:30.048Z,16.80
2022-12-15T09:54:59.489Z,17.20
2022-12-15T09:57:37.940Z,17.75
2022-12-15T10:00:07.361Z,17.80
2022-12-15T10:02:51.034Z,16.27
2022-12-15T10:06:06.170Z,18.98
2022-12-15T10:08:39.255Z,15.75
2022-12-15T10:11:29.454Z,18.02
2022-12-15T10:14:12.238Z,14.52
2022-12-15T10:16:52.713Z,16.20
2022-12-15T10:19:32.342Z,16.48
2022-12-15T10:22:00.108Z,13.95
2022-12-15T10:25:07.913Z,16.60
2022-12-15T10:27:27.048Z,16.52
2022-12-15T10:30:01.107Z,16.00
2022-12-15T10:32:51.445Z,16.10
2022-12-15T10:35:23.778Z,16.13
2022-12-15T10:37:51.444Z,16.45
2022-12-15T10:40:20.955Z,17.60
2022-12-15T10:42:51.332Z,16.02
2022-12-15T10:45:40.252Z,16.85
2022-12-15T10:48:21.399Z,16.55
2022-12-15T10:50:50.153Z,15.13
2022-12-15T10:53:40.865Z,15.38
2022-12-15T10:56:09.256Z,15.57
2022-12-15T10:58:50.261Z,17.80
2022-12-15T11:01:21.377Z,16.42
2022-12-15T11:03:52.752Z,17.13
2022-12-15T11:06:27.156Z,14.80
2022-12-15T11:08:58.021Z,16.10
2022-12-15T11:11:47.337Z,19.15
2022-12-15T11:14:24.549Z,16.30
2022-12-15T11:16:57.866Z,17.77
2022-12-15T11:19:28.512Z,18.90
2022-12-15T11:22:01.065Z,17.52
2022-12-15T11:24:41.394Z,18.95
2022-12-15T11:27:20.743Z,20.23
2022-12-15T11:30:01.081Z,15.73
2022-12-15T11:32:33.593Z,15.15
2022-12-15T11:37:46.430Z,16.65
2022-12-15T11:40:36.344Z,15.80
2022-12-15T11:43:18.901Z,15.82
2022-12-15T11:48:21.180Z,16.10
2022-12-15T11:53:46.941Z,14.82
2022-12-15T11:56:30.976Z,16.90
2022-12-15T11:59:19.156Z,17.08
2022-12-15T12:02:08.090Z,15.25
2022-12-15T12:04:54.049Z,14.95
2022-12-15T12:07:42.661Z,17.95
2022-12-15T12:10:10.289Z,16.08
2022-12-15T12:12:50.804Z,16.20
2022-12-15T12:15:32.993Z,16.55
2022-12-15T12:18:10.792Z,16.80
2022-12-15T12:20:44.471Z,15.98
2022-12-15T12:23:21.453Z,17.45
2022-12-15T12:26:04.555Z,15.63
2022-12-15T12:28:43.989Z,14.57
2022-12-15T12:31:39.554Z,14.75
2022-12-15T12:34:14.938Z,16.40
2022-12-15T12:36:45.810Z,16.30
2022-12-15T12:39:24.317Z,14.05
2022-12-15T12:42:01.982Z,17.40
2022-12-15T12:44:38.719Z,15.13
2022-12-15T12:47:21.316Z,15.00
2022-12-15T12:52:32.319Z,15.40
2022-12-15T12:55:05.901Z,14.60
2022-12-15T12:57:41.570Z,14.45
2022-12-15T13:00:09.042Z,14.18
2022-12-15T13:02:38.116Z,14.70
2022-12-15T13:05:25.999Z,14.57
2022-12-15T13:08:07.286Z,14.70
2022-12-15T13:10:40.766Z,14.73
2022-12-15T13:13:17.518Z,13.57
2022-12-15T13:15:51.259Z,15.55
2022-12-15T13:18:24.724Z,14.60
2022-12-15T13:20:57.166Z,14.13
2022-12-15T13:26:13.411Z,14.18
2022-12-15T13:28:45.906Z,15.80
2022-12-15T13:31:20.738Z,15.18
2022-12-15T13:33:51.576Z,16.98
2022-12-15T13:36:38.431Z,17.67
2022-12-15T13:39:26.446Z,16.27
2022-12-15T13:44:48.592Z,18.75
2022-12-15T13:47:17.757Z,18.92
2022-12-15T13:50:03.603Z,17.45
2022-12-15T13:55:39.257Z,16.40
2022-12-15T13:58:17.434Z,15.87
2022-12-15T14:00:59.028Z,15.57
2022-12-15T14:03:26.882Z,15.25
2022-12-15T14:05:58.562Z,14.30
2022-12-15T14:08:30.102Z,14.95
2022-12-15T14:13:54.311Z,15.95
2022-12-15T14:16:24.516Z,13.88
2022-12-15T14:19:15.949Z,13.88
2022-12-15T14:21:55.517Z,13.43
2022-12-15T14:24:39.622Z,14.40
2022-12-15T14:27:07.939Z,13.65
2022-12-15T14:29:35.612Z,12.82
2022-12-15T14:32:03.706Z,12.68
2022-12-15T14:34:37.103Z,15.13
2022-12-15T14:37:09.969Z,15.55
2022-12-15T14:39:43.497Z,14.98
2022-12-15T14:42:19.777Z,17.70
2022-12-15T14:44:52.053Z,14.88
2022-12-15T14:47:28.503Z,15.38
2022-12-15T14:49:58.677Z,15.13
2022-12-15T14:52:32.133Z,15.00
2022-12-15T14:55:02.344Z,17.48
2022-12-15T14:57:39.106Z,15.75
2022-12-15T15:00:49.823Z,18.33
2022-12-15T15:06:01.476Z,19.48
2022-12-15T15:08:32.621Z,16.83
2022-12-15T15:11:20.253Z,19.38
2022-12-15T15:13:48.413Z,18.52
2022-12-15T15:16:18.853Z,17.83
2022-12-15T15:18:52.226Z,16.98
2022-12-15T15:21:23.864Z,17.67
2022-12-15T15:24:21.773Z,20.80
2022-12-15T15:26:49.499Z,19.98
2022-12-15T15:29:40.979Z,19.98
2022-12-15T15:32:17.677Z,23.08
2022-12-15T15:34:47.035Z,22.05
2022-12-15T15:37:22.244Z,23.77
2022-12-15T15:39:51.548Z,23.73
2022-12-15T15:42:19.170Z,23.77
2022-12-15T15:44:46.700Z,22.15
2022-12-15T15:47:32.135Z,23.88
2022-12-15T15:50:00.801Z,25.25
2022-12-15T15:52:32.002Z,24.77
2022-12-15T15:55:00.415Z,23.85
2022-12-15T15:57:27.930Z,24.55
2022-12-15T15:59:55.578Z,25.67
2022-12-15T16:02:23.488Z,23.95
2022-12-15T16:04:51.218Z,24.42
2022-12-15T16:07:26.638Z,24.42
2022-12-15T16:09:55.181Z,23.35
2022-12-15T16:12:50.823Z,23.70
2022-12-15T16:15:21.675Z,26.50
2022-12-15T16:17:49.326Z,25.65
2022-12-15T16:20:19.241Z,24.85
2022-12-15T16:22:50.948Z,25.80
2022-12-15T16:25:28.423Z,24.65
2022-12-15T16:27:55.952Z,26.52
2022-12-15T16:30:26.072Z,27.88
2022-12-15T16:32:54.668Z,28.58
2022-12-15T16:35:27.235Z,28.10
2022-12-15T16:37:54.796Z,29.30
2022-12-15T16:40:28.256Z,30.15
2022-12-15T16:43:01.299Z,28.00
2022-12-15T16:45:31.856Z,30.58
2022-12-15T16:47:59.683Z,28.83
2022-12-15T16:50:37.708Z,28.80
2022-12-15T16:53:06.025Z,28.70
2022-12-15T16:55:39.913Z,27.92
2022-12-15T16:58:08.085Z,28.73
2022-12-15T17:00:36.597Z,26.98
2022-12-15T17:03:04.780Z,29.20
2022-12-15T17:05:34.667Z,30.67
2022-12-15T17:08:05.523Z,31.95
2022-12-15T17:10:34.282Z,31.88
2022-12-15T17:13:08.438Z,32.30
2022-12-15T17:15:39.842Z,34.60
2022-12-15T17:18:15.020Z,31.98
2022-12-15T17:20:43.753Z,33.03
2022-12-15T17:23:18.470Z,33.15
2022-12-15T17:28:37.675Z,31.75
2022-12-15T17:31:05.332Z,31.30
2022-12-15T17:33:35.814Z,33.40
2022-12-15T17:36:09.500Z,30.45
2022-12-15T17:38:37.068Z,32.20
2022-12-15T17:41:04.652Z,31.15
2022-12-15T17:43:35.906Z,33.83
2022-12-15T17:46:03.983Z,30.75
2022-12-15T17:48:31.630Z,31.70
2022-12-15T17:50:59.922Z,31.60
2022-12-15T17:53:27.610Z,31.58
2022-12-15T17:55:55.335Z,29.10
2022-12-15T17:58:25.796Z,33.13
2022-12-15T18:00:55.746Z,31.75
2022-12-15T18:03:24.907Z,30.50
2022-12-15T18:05:54.214Z,30.00
2022-12-15T18:08:25.364Z,31.58
2022-12-15T18:10:55.661Z,31.60
2022-12-15T18:13:30.351Z,35.20
2022-12-15T18:16:02.766Z,32.97
2022-12-15T18:18:30.594Z,35.70
2022-12-15T18:21:02.520Z,35.85
2022-12-15T18:23:32.182Z,28.30
2022-12-15T18:26:03.175Z,35.40
2022-12-15T18:28:34.480Z,35.20
2022-12-15T18:31:14.753Z,37.08
2022-12-15T18:33:42.309Z,36.95
2022-12-15T18:36:10.477Z,40.75
2022-12-15T18:38:38.340Z,36.70
2022-12-15T18:41:06.946Z,37.25
2022-12-15T18:43:36.069Z,35.28
2022-12-15T18:46:03.818Z,36.72
2022-12-15T18:48:34.960Z,36.00
2022-12-15T18:51:03.680Z,38.13
2022-12-15T18:53:35.342Z,36.15
2022-12-15T18:56:06.044Z,37.17
2022-12-15T18:58:39.401Z,37.35
2022-12-15T19:01:08.377Z,38.58
2022-12-15T19:03:38.233Z,39.28
2022-12-15T19:06:23.949Z,41.92
2022-12-15T19:08:53.358Z,41.47
2022-12-15T19:11:30.954Z,38.08
2022-12-15T19:14:04.002Z,40.28
2022-12-15T19:16:51.655Z,40.03
2022-12-15T19:19:36.851Z,41.58
2022-12-15T19:22:29.983Z,43.22
2022-12-15T19:24:58.537Z,39.28
2022-12-15T19:27:27.137Z,44.58
2022-12-15T19:29:55.895Z,43.03
2022-12-15T19:32:24.150Z,43.08
2022-12-15T19:34:51.705Z,45.28
2022-12-15T19:37:31.548Z,41.63
2022-12-15T19:40:01.813Z,39.40
2022-12-15T19:42:37.731Z,38.75
2022-12-15T19:45:32.760Z,42.22
2022-12-15T19:48:00.992Z,38.85
2022-12-15T19:50:36.600Z,42.42
2022-12-15T19:53:10.835Z,40.33
2022-12-15T19:55:38.490Z,41.05
2022-12-15T19:58:25.257Z,41.95
2022-12-15T20:00:55.801Z,38.85
2022-12-15T20:03:23.647Z,39.20
2022-12-15T20:05:52.957Z,39.50
2022-12-15T20:08:26.541Z,42.10
2022-12-15T20:10:55.689Z,39.97
2022-12-15T20:13:26.427Z,41.15
2022-12-15T20:15:55.201Z,40.58
2022-12-15T20:18:22.883Z,39.03
2022-12-15T20:20:51.073Z,42.00
2022-12-15T20:23:20.451Z,42.08
2022-12-15T20:25:50.781Z,40.75
2022-12-15T20:28:23.292Z,38.70
2022-12-15T20:33:19.344Z,40.10
2022-12-15T20:35:49.391Z,39.20
2022-12-15T20:38:25.153Z,40.75
2022-12-15T20:40:54.018Z,38.67
2022-12-15T20:43:23.400Z,40.60
2022-12-15T20:45:59.060Z,39.15
2022-12-15T20:48:26.848Z,39.90
2022-12-15T20:50:54.462Z,37.50
2022-12-15T20:53:25.280Z,37.17
2022-12-15T20:55:55.034Z,41.08
2022-12-15T20:58:27.010Z,35.33
2022-12-15T21:00:55.894Z,36.03
2022-12-15T21:03:28.355Z,33.90
2022-12-15T21:08:28.473Z,36.60
2022-12-15T21:11:00.868Z,37.58
2022-12-15T21:15:59.145Z,37.28
2022-12-15T21:19:03.911Z,39.05
2022-12-15T21:21:26.169Z,36.60
2022-12-15T21:23:54.642Z,34.10
2022-12-15T21:26:23.933Z,35.15
2022-12-15T21:28:55.565Z,34.50
2022-12-15T21:31:23.675Z,36.55
2022-12-15T21:33:51.444Z,35.60
2022-12-15T21:36:21.334Z,35.92
2022-12-15T21:38:51.906Z,34.38
2022-12-15T21:41:22.065Z,37.05
2022-12-15T21:43:50.815Z,35.28
2022-12-15T21:46:26.079Z,34.05
2022-12-15T21:49:13.940Z,35.20
2022-12-15T21:51:44.783Z,34.08
2022-12-15T21:54:19.392Z,32.92
2022-12-15T21:56:48.539Z,33.70
2022-12-15T21:59:21.659Z,33.70
2022-12-15T22:01:49.870Z,33.10
2022-12-15T22:04:22.128Z,33.63
2022-12-15T22:06:50.321Z,35.75
2022-12-15T22:09:18.968Z,35.13
2022-12-15T22:11:49.548Z,35.20
2022-12-15T22:14:27.233Z,36.47
2022-12-15T22:16:55.456Z,34.22
2022-12-15T22:19:23.351Z,36.88
2022-12-15T22:21:52.094Z,33.97
2022-12-15T22:24:19.833Z,34.03
2022-12-15T22:26:49.200Z,33.45
2022-12-15T22:29:22.496Z,35.78
2022-12-15T22:31:51.786Z,35.53
2022-12-15T22:34:24.606Z,31.55
2022-12-15T22:36:52.593Z,35.22
2022-12-15T22:39:22.485Z,35.03
2022-12-15T22:41:53.567Z,33.42
2022-12-15T22:44:28.429Z,33.80
2022-12-15T22:46:58.227Z,33.33
2022-12-15T22:49:31.195Z,32.92
2022-12-15T22:51:59.192Z,35.42
2022-12-15T22:54:29.353Z,35.83
2022-12-15T22:57:05.394Z,36.92
2022-12-15T22:59:41.154Z,39.33
2022-12-15T23:02:10.081Z,38.67
2022-12-15T23:04:37.813Z,34.88
2022-12-15T23:07:10.044Z,35.90
2022-12-15T23:09:37.810Z,33.72
2022-12-15T23:12:04.666Z,35.80
2022-12-15T23:14:54.742Z,35.80
2022-12-15T23:17:22.445Z,35.40
2022-12-15T23:19:49.960Z,34.65
2022-12-15T23:22:18.005Z,34.30
2022-12-15T23:24:45.829Z,35.10
2022-12-15T23:27:13.580Z,36.70
2022-12-15T23:29:41.123Z,33.03
2022-12-15T23:32:08.653Z,34.17
2022-12-15T23:34:36.177Z,37.25
2022-12-15T23:37:03.705Z,36.35
2022-12-15T23:39:31.592Z,38.50
2022-12-15T23:41:59.070Z,37.10
2022-12-15T23:44:26.609Z,35.67
2022-12-15T23:46:54.222Z,37.67
2022-12-15T23:49:21.805Z,38.28
2022-12-15T23:51:49.572Z,36.50
2022-12-15T23:54:17.089Z,40.03
2022-12-15T23:56:44.673Z,37.67
2022-12-15T23:59:12.233Z,38.58
